sensor_id;sensor_type;location;lat;lon;timestamp;pressure;altitude;pressure_sealevel;temperature;humidity
21545;BME280;10933;50.754;11.508;2023-08-20T00:01:22;100960.72;;;21.95;100.00
21545;BME280;10933;50.754;11.508;2023-08-20T00:03:51;100962.91;;;21.98;100.00
21545;BME280;10933;50.754;11.508;2023-08-20T00:06:17;100963.38;;;22.05;100.00
21545;BME280;10933;50.754;11.508;2023-08-20T00:08:44;100959.28;;;22.02;100.00
21545;BME280;10933;50.754;11.508;2023-08-20T00:11:11;100949.69;;;22.00;100.00
21545;BME280;10933;50.754;11.508;2023-08-20T00:13:37;100941.75;;;21.98;100.00
21545;BME280;10933;50.754;11.508;2023-08-20T00:16:03;100947.47;;;22.02;100.00
21545;BME280;10933;50.754;11.508;2023-08-20T00:18:29;100944.94;;;22.11;100.00
21545;BME280;10933;50.754;11.508;2023-08-20T00:20:56;100947.13;;;22.09;100.00
21545;BME280;10933;50.754;11.508;2023-08-20T00:23:23;100948.19;;;22.13;100.00
21545;BME280;10933;50.754;11.508;2023-08-20T00:25:49;100951.69;;;22.18;100.00
21545;BME280;10933;50.754;11.508;2023-08-20T00:28:15;100955.63;;;22.12;100.00
21545;BME280;10933;50.754;11.508;2023-08-20T00:30:41;100951.47;;;22.15;100.00
21545;BME280;10933;50.754;11.508;2023-08-20T00:33:07;100941.34;;;22.10;100.00
21545;BME280;10933;50.754;11.508;2023-08-20T00:35:33;100935.88;;;22.05;100.00
21545;BME280;10933;50.754;11.508;2023-08-20T00:38:00;100931.69;;;21.89;100.00
21545;BME280;10933;50.754;11.508;2023-08-20T00:40:26;100927.66;;;21.81;100.00
21545;BME280;10933;50.754;11.508;2023-08-20T00:42:52;100924.44;;;21.74;100.00
21545;BME280;10933;50.754;11.508;2023-08-20T00:45:18;100936.00;;;21.71;100.00
21545;BME280;10933;50.754;11.508;2023-08-20T00:47:45;100924.78;;;21.67;100.00
21545;BME280;10933;50.754;11.508;2023-08-20T00:50:12;100933.63;;;21.64;100.00
21545;BME280;10933;50.754;11.508;2023-08-20T00:52:38;100939.09;;;21.64;100.00
21545;BME280;10933;50.754;11.508;2023-08-20T00:55:10;100937.47;;;21.63;100.00
21545;BME280;10933;50.754;11.508;2023-08-20T00:57:38;100936.34;;;21.64;100.00
21545;BME280;10933;50.754;11.508;2023-08-20T01:00:06;100925.97;;;21.61;100.00
21545;BME280;10933;50.754;11.508;2023-08-20T01:02:34;100933.03;;;21.67;100.00
21545;BME280;10933;50.754;11.508;2023-08-20T01:05:02;100925.38;;;21.64;100.00
21545;BME280;10933;50.754;11.508;2023-08-20T01:10:25;100932.28;;;21.62;100.00
21545;BME280;10933;50.754;11.508;2023-08-20T01:12:53;100932.28;;;21.62;100.00
21545;BME280;10933;50.754;11.508;2023-08-20T01:15:20;100938.22;;;21.69;100.00
21545;BME280;10933;50.754;11.508;2023-08-20T01:17:47;100940.44;;;21.67;100.00
21545;BME280;10933;50.754;11.508;2023-08-20T01:20:14;100940.44;;;21.67;100.00
21545;BME280;10933;50.754;11.508;2023-08-20T01:23:05;100938.50;;;21.67;100.00
21545;BME280;10933;50.754;11.508;2023-08-20T01:28:29;100925.66;;;21.63;100.00
21545;BME280;10933;50.754;11.508;2023-08-20T01:30:58;100928.16;;;21.59;100.00
21545;BME280;10933;50.754;11.508;2023-08-20T01:33:25;100926.28;;;21.55;100.00
21545;BME280;10933;50.754;11.508;2023-08-20T01:35:55;100920.06;;;21.49;100.00
21545;BME280;10933;50.754;11.508;2023-08-20T01:38:22;100914.31;;;21.45;100.00
21545;BME280;10933;50.754;11.508;2023-08-20T01:40:48;100917.63;;;21.42;100.00
21545;BME280;10933;50.754;11.508;2023-08-20T01:43:15;100916.00;;;21.41;100.00
21545;BME280;10933;50.754;11.508;2023-08-20T01:45:41;100922.59;;;21.40;100.00
21545;BME280;10933;50.754;11.508;2023-08-20T01:48:07;100917.94;;;21.41;100.00
21545;BME280;10933;50.754;11.508;2023-08-20T01:50:35;100925.88;;;21.42;100.00
21545;BME280;10933;50.754;11.508;2023-08-20T01:53:02;100927.78;;;21.42;100.00
21545;BME280;10933;50.754;11.508;2023-08-20T01:55:30;100921.19;;;21.43;100.00
21545;BME280;10933;50.754;11.508;2023-08-20T01:57:57;100930.78;;;21.45;100.00
21545;BME280;10933;50.754;11.508;2023-08-20T02:00:23;100923.66;;;21.44;100.00
21545;BME280;10933;50.754;11.508;2023-08-20T02:02:49;100943.59;;;21.55;100.00
21545;BME280;10933;50.754;11.508;2023-08-20T02:05:15;100938.09;;;21.55;100.00
21545;BME280;10933;50.754;11.508;2023-08-20T02:07:41;100935.13;;;21.52;100.00
21545;BME280;10933;50.754;11.508;2023-08-20T02:10:08;100931.66;;;21.41;100.00
21545;BME280;10933;50.754;11.508;2023-08-20T02:12:34;100932.28;;;21.33;100.00
21545;BME280;10933;50.754;11.508;2023-08-20T02:15:00;100936.41;;;21.30;100.00
21545;BME280;10933;50.754;11.508;2023-08-20T02:17:27;100938.09;;;21.26;100.00
21545;BME280;10933;50.754;11.508;2023-08-20T02:19:53;100929.63;;;21.23;100.00
21545;BME280;10933;50.754;11.508;2023-08-20T02:22:20;100938.09;;;21.21;100.00
21545;BME280;10933;50.754;11.508;2023-08-20T02:24:46;100941.13;;;21.20;100.00
21545;BME280;10933;50.754;11.508;2023-08-20T02:27:12;100936.22;;;21.22;100.00
21545;BME280;10933;50.754;11.508;2023-08-20T02:29:39;100938.97;;;21.22;100.00
21545;BME280;10933;50.754;11.508;2023-08-20T02:32:05;100941.13;;;21.20;100.00
21545;BME280;10933;50.754;11.508;2023-08-20T02:34:31;100931.28;;;21.19;100.00
21545;BME280;10933;50.754;11.508;2023-08-20T02:36:57;100930.75;;;21.16;100.00
21545;BME280;10933;50.754;11.508;2023-08-20T02:39:23;100936.25;;;21.16;100.00
21545;BME280;10933;50.754;11.508;2023-08-20T02:41:50;100941.44;;;21.18;100.00
21545;BME280;10933;50.754;11.508;2023-08-20T02:44:16;100940.09;;;21.15;100.00
21545;BME280;10933;50.754;11.508;2023-08-20T02:46:42;100931.56;;;21.17;100.00
21545;BME280;10933;50.754;11.508;2023-08-20T02:49:10;100938.16;;;21.16;100.00
21545;BME280;10933;50.754;11.508;2023-08-20T02:51:36;100938.47;;;21.14;100.00
21545;BME280;10933;50.754;11.508;2023-08-20T02:54:02;100939.56;;;21.13;100.00
21545;BME280;10933;50.754;11.508;2023-08-20T02:56:28;100942.88;;;21.10;100.00
21545;BME280;10933;50.754;11.508;2023-08-20T02:58:55;100940.75;;;21.02;100.00
21545;BME280;10933;50.754;11.508;2023-08-20T03:01:22;100946.53;;;20.96;100.00
21545;BME280;10933;50.754;11.508;2023-08-20T03:03:49;100943.03;;;20.90;100.00
21545;BME280;10933;50.754;11.508;2023-08-20T03:06:15;100939.75;;;20.88;100.00
21545;BME280;10933;50.754;11.508;2023-08-20T03:08:42;100941.16;;;20.85;100.00
21545;BME280;10933;50.754;11.508;2023-08-20T03:11:08;100940.63;;;20.83;100.00
21545;BME280;10933;50.754;11.508;2023-08-20T03:13:34;100947.47;;;20.86;100.00
21545;BME280;10933;50.754;11.508;2023-08-20T03:16:00;100949.34;;;20.91;100.00
21545;BME280;10933;50.754;11.508;2023-08-20T03:18:26;100949.56;;;20.94;100.00
21545;BME280;10933;50.754;11.508;2023-08-20T03:20:55;100945.19;;;20.98;100.00
21545;BME280;10933;50.754;11.508;2023-08-20T03:23:22;100954.53;;;20.97;100.00
21545;BME280;10933;50.754;11.508;2023-08-20T03:25:48;100955.66;;;20.91;100.00
21545;BME280;10933;50.754;11.508;2023-08-20T03:28:14;100947.72;;;20.90;100.00
21545;BME280;10933;50.754;11.508;2023-08-20T03:30:40;100955.13;;;20.89;100.00
21545;BME280;10933;50.754;11.508;2023-08-20T03:33:07;100953.50;;;20.83;100.00
21545;BME280;10933;50.754;11.508;2023-08-20T03:35:33;100954.66;;;20.77;100.00
21545;BME280;10933;50.754;11.508;2023-08-20T03:37:59;100959.91;;;20.73;100.00
21545;BME280;10933;50.754;11.508;2023-08-20T03:40:25;100950.28;;;20.71;100.00
21545;BME280;10933;50.754;11.508;2023-08-20T03:42:51;100944.28;;;20.69;100.00
21545;BME280;10933;50.754;11.508;2023-08-20T03:45:17;100950.63;;;20.64;100.00
21545;BME280;10933;50.754;11.508;2023-08-20T03:47:43;100940.53;;;20.54;100.00
21545;BME280;10933;50.754;11.508;2023-08-20T03:50:10;100931.53;;;20.49;100.00
21545;BME280;10933;50.754;11.508;2023-08-20T03:52:36;100936.75;;;20.45;100.00
21545;BME280;10933;50.754;11.508;2023-08-20T03:55:03;100946.06;;;20.44;100.00
21545;BME280;10933;50.754;11.508;2023-08-20T03:57:29;100937.59;;;20.46;100.00
21545;BME280;10933;50.754;11.508;2023-08-20T03:59:55;100945.53;;;20.47;100.00
21545;BME280;10933;50.754;11.508;2023-08-20T04:02:21;100951.81;;;20.48;100.00
21545;BME280;10933;50.754;11.508;2023-08-20T04:04:47;100956.50;;;20.47;100.00
21545;BME280;10933;50.754;11.508;2023-08-20T04:07:13;100959.25;;;20.42;100.00
21545;BME280;10933;50.754;11.508;2023-08-20T04:09:39;100955.69;;;20.42;100.00
21545;BME280;10933;50.754;11.508;2023-08-20T04:12:06;100953.22;;;20.35;100.00
21545;BME280;10933;50.754;11.508;2023-08-20T04:14:32;100949.16;;;20.27;100.00
21545;BME280;10933;50.754;11.508;2023-08-20T04:16:58;100945.63;;;20.22;100.00
21545;BME280;10933;50.754;11.508;2023-08-20T04:19:25;100946.16;;;20.19;100.00
21545;BME280;10933;50.754;11.508;2023-08-20T04:21:51;100947.84;;;20.15;100.00
21545;BME280;10933;50.754;11.508;2023-08-20T04:24:17;100950.84;;;20.13;100.00
21545;BME280;10933;50.754;11.508;2023-08-20T04:26:43;100956.31;;;20.18;100.00
21545;BME280;10933;50.754;11.508;2023-08-20T04:29:09;100958.22;;;20.18;100.00
21545;BME280;10933;50.754;11.508;2023-08-20T04:31:35;100960.97;;;20.23;100.00
21545;BME280;10933;50.754;11.508;2023-08-20T04:34:02;100958.44;;;20.32;100.00
21545;BME280;10933;50.754;11.508;2023-08-20T04:36:28;100964.72;;;20.42;100.00
21545;BME280;10933;50.754;11.508;2023-08-20T04:38:54;100966.88;;;20.45;100.00
21545;BME280;10933;50.754;11.508;2023-08-20T04:41:20;100971.53;;;20.50;100.00
21545;BME280;10933;50.754;11.508;2023-08-20T04:43:46;100965.50;;;20.53;100.00
21545;BME280;10933;50.754;11.508;2023-08-20T04:46:12;100964.69;;;20.52;100.00
21545;BME280;10933;50.754;11.508;2023-08-20T04:48:39;100966.88;;;20.50;100.00
21545;BME280;10933;50.754;11.508;2023-08-20T04:51:06;100974.00;;;20.51;100.00
21545;BME280;10933;50.754;11.508;2023-08-20T04:53:33;100974.28;;;20.50;100.00
21545;BME280;10933;50.754;11.508;2023-08-20T04:55:59;100980.53;;;20.61;100.00
21545;BME280;10933;50.754;11.508;2023-08-20T04:58:25;100988.69;;;20.71;100.00
21545;BME280;10933;50.754;11.508;2023-08-20T05:00:51;100996.06;;;20.75;100.00
21545;BME280;10933;50.754;11.508;2023-08-20T05:03:18;101007.00;;;20.85;100.00
21545;BME280;10933;50.754;11.508;2023-08-20T05:05:49;101016.50;;;20.98;100.00
21545;BME280;10933;50.754;11.508;2023-08-20T05:08:15;101036.13;;;21.15;100.00
21545;BME280;10933;50.754;11.508;2023-08-20T05:10:41;101048.97;;;21.20;100.00
21545;BME280;10933;50.754;11.508;2023-08-20T05:13:09;101057.50;;;21.19;100.00
21545;BME280;10933;50.754;11.508;2023-08-20T05:15:35;101064.31;;;21.31;100.00
21545;BME280;10933;50.754;11.508;2023-08-20T05:18:01;101080.41;;;21.48;100.00
21545;BME280;10933;50.754;11.508;2023-08-20T05:20:27;101094.25;;;21.67;100.00
21545;BME280;10933;50.754;11.508;2023-08-20T05:22:53;101111.78;;;21.71;100.00
21545;BME280;10933;50.754;11.508;2023-08-20T05:25:19;101125.34;;;21.57;100.00
21545;BME280;10933;50.754;11.508;2023-08-20T05:27:45;101133.09;;;21.50;100.00
21545;BME280;10933;50.754;11.508;2023-08-20T05:30:11;101144.25;;;21.64;100.00
21545;BME280;10933;50.754;11.508;2023-08-20T05:32:37;101154.41;;;21.63;100.00
21545;BME280;10933;50.754;11.508;2023-08-20T05:35:04;101168.09;;;21.68;100.00
21545;BME280;10933;50.754;11.508;2023-08-20T05:37:30;101174.13;;;21.70;100.00
21545;BME280;10933;50.754;11.508;2023-08-20T05:39:56;101176.97;;;21.60;100.00
21545;BME280;10933;50.754;11.508;2023-08-20T05:42:22;101171.78;;;21.54;100.00
21545;BME280;10933;50.754;11.508;2023-08-20T05:44:48;101171.81;;;21.49;100.00
21545;BME280;10933;50.754;11.508;2023-08-20T05:47:15;101167.50;;;21.37;100.00
21545;BME280;10933;50.754;11.508;2023-08-20T05:49:41;101160.38;;;21.36;100.00
21545;BME280;10933;50.754;11.508;2023-08-20T05:52:07;101172.63;;;21.49;100.00
21545;BME280;10933;50.754;11.508;2023-08-20T05:54:33;101169.84;;;21.54;100.00
21545;BME280;10933;50.754;11.508;2023-08-20T05:56:59;101175.34;;;21.54;100.00
21545;BME280;10933;50.754;11.508;2023-08-20T05:59:25;101192.22;;;21.77;100.00
21545;BME280;10933;50.754;11.508;2023-08-20T06:01:53;101189.41;;;21.87;100.00
21545;BME280;10933;50.754;11.508;2023-08-20T06:04:20;101191.56;;;21.90;100.00
21545;BME280;10933;50.754;11.508;2023-08-20T06:06:46;101193.78;;;21.88;100.00
21545;BME280;10933;50.754;11.508;2023-08-20T06:09:12;101187.72;;;21.91;100.00
21545;BME280;10933;50.754;11.508;2023-08-20T06:11:39;101194.25;;;22.00;100.00
21545;BME280;10933;50.754;11.508;2023-08-20T06:14:05;101206.28;;;22.09;100.00
21545;BME280;10933;50.754;11.508;2023-08-20T06:16:31;101200.69;;;22.19;100.00
21545;BME280;10933;50.754;11.508;2023-08-20T06:18:58;101199.56;;;22.25;100.00
21545;BME280;10933;50.754;11.508;2023-08-20T06:21:24;101198.38;;;22.31;100.00
21545;BME280;10933;50.754;11.508;2023-08-20T06:23:51;101203.94;;;22.26;100.00
21545;BME280;10933;50.754;11.508;2023-08-20T06:26:17;101191.59;;;22.24;100.00
21545;BME280;10933;50.754;11.508;2023-08-20T06:28:43;101188.25;;;22.27;100.00
21545;BME280;10933;50.754;11.508;2023-08-20T06:31:09;101186.47;;;22.41;100.00
21545;BME280;10933;50.754;11.508;2023-08-20T06:33:35;101182.28;;;22.49;100.00
21545;BME280;10933;50.754;11.508;2023-08-20T06:36:01;101171.28;;;22.49;100.00
21545;BME280;10933;50.754;11.508;2023-08-20T06:38:27;101174.19;;;22.57;100.00
21545;BME280;10933;50.754;11.508;2023-08-20T06:40:53;101163.78;;;22.78;100.00
21545;BME280;10933;50.754;11.508;2023-08-20T06:43:19;101146.34;;;22.64;100.00
21545;BME280;10933;50.754;11.508;2023-08-20T06:45:45;101120.00;;;22.58;100.00
21545;BME280;10933;50.754;11.508;2023-08-20T06:48:11;101093.75;;;22.47;100.00
21545;BME280;10933;50.754;11.508;2023-08-20T06:50:37;101083.03;;;22.45;100.00
21545;BME280;10933;50.754;11.508;2023-08-20T06:53:04;101072.84;;;22.46;100.00
21545;BME280;10933;50.754;11.508;2023-08-20T06:55:31;101067.59;;;22.49;100.00
21545;BME280;10933;50.754;11.508;2023-08-20T06:57:57;101065.13;;;22.48;100.00
21545;BME280;10933;50.754;11.508;2023-08-20T07:00:23;101065.72;;;22.45;100.00
21545;BME280;10933;50.754;11.508;2023-08-20T07:02:50;101070.06;;;22.51;100.00
21545;BME280;10933;50.754;11.508;2023-08-20T07:05:16;101075.03;;;22.49;100.00
21545;BME280;10933;50.754;11.508;2023-08-20T07:07:43;101067.34;;;22.46;100.00
21545;BME280;10933;50.754;11.508;2023-08-20T07:10:09;101069.88;;;22.42;100.00
21545;BME280;10933;50.754;11.508;2023-08-20T07:12:35;101079.53;;;22.40;100.00
21545;BME280;10933;50.754;11.508;2023-08-20T07:15:01;101065.72;;;22.45;100.00
21545;BME280;10933;50.754;11.508;2023-08-20T07:17:29;101058.59;;;22.44;100.00
21545;BME280;10933;50.754;11.508;2023-08-20T07:19:55;101066.19;;;22.52;100.00
21545;BME280;10933;50.754;11.508;2023-08-20T07:22:21;101074.06;;;22.58;100.00
21545;BME280;10933;50.754;11.508;2023-08-20T07:24:47;101072.84;;;22.70;100.00
21545;BME280;10933;50.754;11.508;2023-08-20T07:27:13;101082.28;;;22.82;100.00
21545;BME280;10933;50.754;11.508;2023-08-20T07:29:41;101076.78;;;22.82;100.00
21545;BME280;10933;50.754;11.508;2023-08-20T07:32:07;101067.19;;;22.80;100.00
21545;BME280;10933;50.754;11.508;2023-08-20T07:34:33;101069.44;;;22.78;100.00
21545;BME280;10933;50.754;11.508;2023-08-20T07:37:00;101079.16;;;22.70;100.00
21545;BME280;10933;50.754;11.508;2023-08-20T07:39:27;101077.28;;;22.66;100.00
21545;BME280;10933;50.754;11.508;2023-08-20T07:41:53;101079.56;;;22.58;100.00
21545;BME280;10933;50.754;11.508;2023-08-20T07:44:19;101080.09;;;22.60;100.00
21545;BME280;10933;50.754;11.508;2023-08-20T07:46:45;101089.75;;;22.58;100.00
21545;BME280;10933;50.754;11.508;2023-08-20T07:49:11;101092.63;;;22.48;100.00
21545;BME280;10933;50.754;11.508;2023-08-20T07:51:37;101100.34;;;22.46;100.00
21545;BME280;10933;50.754;11.508;2023-08-20T07:54:04;101106.97;;;22.45;100.00
21545;BME280;10933;50.754;11.508;2023-08-20T07:56:30;101109.69;;;22.50;100.00
21545;BME280;10933;50.754;11.508;2023-08-20T07:58:56;101121.78;;;22.49;100.00
21545;BME280;10933;50.754;11.508;2023-08-20T08:01:22;101116.03;;;22.45;100.00
21545;BME280;10933;50.754;11.508;2023-08-20T08:03:48;101119.31;;;22.47;100.00
21545;BME280;10933;50.754;11.508;2023-08-20T08:06:15;101128.09;;;22.49;100.00
21545;BME280;10933;50.754;11.508;2023-08-20T08:08:43;101123.66;;;22.53;100.00
21545;BME280;10933;50.754;11.508;2023-08-20T08:11:10;101126.91;;;22.55;100.00
21545;BME280;10933;50.754;11.508;2023-08-20T08:13:36;101132.41;;;22.55;100.00
21545;BME280;10933;50.754;11.508;2023-08-20T08:16:02;101129.75;;;22.50;100.00
21545;BME280;10933;50.754;11.508;2023-08-20T08:18:29;101126.69;;;22.52;100.00
21545;BME280;10933;50.754;11.508;2023-08-20T08:20:55;101138.00;;;22.50;100.00
21545;BME280;10933;50.754;11.508;2023-08-20T08:23:21;101132.19;;;22.52;100.00
21545;BME280;10933;50.754;11.508;2023-08-20T08:25:47;101135.69;;;22.57;100.00
21545;BME280;10933;50.754;11.508;2023-08-20T08:28:13;101135.16;;;22.55;100.00
21545;BME280;10933;50.754;11.508;2023-08-20T08:30:39;101132.66;;;22.59;100.00
21545;BME280;10933;50.754;11.508;2023-08-20T08:33:06;101133.72;;;22.63;100.00
21545;BME280;10933;50.754;11.508;2023-08-20T08:35:32;101131.41;;;22.70;100.00
21545;BME280;10933;50.754;11.508;2023-08-20T08:37:58;101134.28;;;22.60;100.00
21545;BME280;10933;50.754;11.508;2023-08-20T08:40:29;101134.88;;;22.57;100.00
21545;BME280;10933;50.754;11.508;2023-08-20T08:42:55;101137.59;;;22.62;100.00
21545;BME280;10933;50.754;11.508;2023-08-20T08:45:22;101141.31;;;22.71;100.00
21545;BME280;10933;50.754;11.508;2023-08-20T08:47:49;101137.59;;;22.62;100.00
21545;BME280;10933;50.754;11.508;2023-08-20T08:50:17;101126.22;;;22.69;100.00
21545;BME280;10933;50.754;11.508;2023-08-20T08:52:45;101133.56;;;22.73;100.00
21545;BME280;10933;50.754;11.508;2023-08-20T08:55:12;101124.13;;;22.84;100.00
21545;BME280;10933;50.754;11.508;2023-08-20T08:57:38;101129.81;;;23.12;100.00
21545;BME280;10933;50.754;11.508;2023-08-20T09:00:05;101124.00;;;23.32;100.00
21545;BME280;10933;50.754;11.508;2023-08-20T09:02:31;101128.88;;;23.59;100.00
21545;BME280;10933;50.754;11.508;2023-08-20T09:04:58;101135.69;;;23.81;100.00
21545;BME280;10933;50.754;11.508;2023-08-20T09:07:24;101154.97;;;23.81;100.00
21545;BME280;10933;50.754;11.508;2023-08-20T09:09:50;101151.19;;;23.76;100.00
21545;BME280;10933;50.754;11.508;2023-08-20T09:12:18;101159.31;;;23.68;100.00
21545;BME280;10933;50.754;11.508;2023-08-20T09:14:50;101170.69;;;23.80;100.00
21545;BME280;10933;50.754;11.508;2023-08-20T09:17:16;101194.16;;;23.59;100.00
21545;BME280;10933;50.754;11.508;2023-08-20T09:19:44;101206.50;;;23.42;100.00
21545;BME280;10933;50.754;11.508;2023-08-20T09:22:14;101199.78;;;23.48;100.00
21545;BME280;10933;50.754;11.508;2023-08-20T09:24:51;101207.88;;;23.64;100.00
21545;BME280;10933;50.754;11.508;2023-08-20T09:27:18;101213.22;;;23.74;100.00
21545;BME280;10933;50.754;11.508;2023-08-20T09:29:48;101216.50;;;23.76;100.00
21545;BME280;10933;50.754;11.508;2023-08-20T09:32:25;101214.03;;;23.93;100.00
21545;BME280;10933;50.754;11.508;2023-08-20T09:34:54;101221.28;;;23.89;100.00
21545;BME280;10933;50.754;11.508;2023-08-20T09:37:22;101216.28;;;23.72;100.00
21545;BME280;10933;50.754;11.508;2023-08-20T09:39:49;101222.53;;;23.59;100.00
21545;BME280;10933;50.754;11.508;2023-08-20T09:42:16;101225.88;;;23.75;100.00
21545;BME280;10933;50.754;11.508;2023-08-20T09:44:46;101223.66;;;23.77;100.00
21545;BME280;10933;50.754;11.508;2023-08-20T09:47:16;101225.97;;;23.46;100.00
21545;BME280;10933;50.754;11.508;2023-08-20T09:49:48;101217.66;;;23.51;100.00
21545;BME280;10933;50.754;11.508;2023-08-20T09:52:29;101232.13;;;23.62;100.00
21545;BME280;10933;50.754;11.508;2023-08-20T09:55:21;101217.13;;;23.49;100.00
21545;BME280;10933;50.754;11.508;2023-08-20T09:57:48;101221.59;;;23.45;100.00
21545;BME280;10933;50.754;11.508;2023-08-20T10:00:15;101216.84;;;23.51;100.00
21545;BME280;10933;50.754;11.508;2023-08-20T10:02:42;101219.41;;;23.66;100.00
21545;BME280;10933;50.754;11.508;2023-08-20T10:05:10;101217.09;;;23.73;100.00
21545;BME280;10933;50.754;11.508;2023-08-20T10:07:37;101214.84;;;23.94;100.00
21545;BME280;10933;50.754;11.508;2023-08-20T10:10:05;101210.25;;;23.89;100.00
21545;BME280;10933;50.754;11.508;2023-08-20T10:12:32;101217.03;;;24.11;100.00
21545;BME280;10933;50.754;11.508;2023-08-20T10:15:00;101212.66;;;24.10;100.00
21545;BME280;10933;50.754;11.508;2023-08-20T10:17:28;101208.66;;;24.02;100.00
21545;BME280;10933;50.754;11.508;2023-08-20T10:19:55;101213.50;;;23.91;100.00
21545;BME280;10933;50.754;11.508;2023-08-20T10:22:25;101212.75;;;24.04;100.00
21545;BME280;10933;50.754;11.508;2023-08-20T10:24:57;101214.03;;;24.26;100.00
21545;BME280;10933;50.754;11.508;2023-08-20T10:27:27;101228.84;;;24.62;100.00
21545;BME280;10933;50.754;11.508;2023-08-20T10:29:54;101228.78;;;24.95;100.00
21545;BME280;10933;50.754;11.508;2023-08-20T10:32:51;101245.22;;;25.00;100.00
21545;BME280;10933;50.754;11.508;2023-08-20T10:35:28;101250.44;;;24.88;100.00
21545;BME280;10933;50.754;11.508;2023-08-20T10:38:16;101256.28;;;25.55;100.00
21545;BME280;10933;50.754;11.508;2023-08-20T10:41:00;101271.78;;;25.92;100.00
21545;BME280;10933;50.754;11.508;2023-08-20T10:43:33;101278.78;;;25.76;100.00
21545;BME280;10933;50.754;11.508;2023-08-20T10:46:20;101284.31;;;25.48;100.00
21545;BME280;10933;50.754;11.508;2023-08-20T10:48:51;101276.56;;;25.23;100.00
21545;BME280;10933;50.754;11.508;2023-08-20T10:56:47;101260.78;;;24.82;100.00
21545;BME280;10933;50.754;11.508;2023-08-20T10:59:21;101252.03;;;25.21;100.00
21545;BME280;10933;50.754;11.508;2023-08-20T11:01:49;101261.19;;;25.58;100.00
21545;BME280;10933;50.754;11.508;2023-08-20T11:04:17;101277.88;;;26.25;100.00
21545;BME280;10933;50.754;11.508;2023-08-20T11:06:44;101291.63;;;26.84;100.00
21545;BME280;10933;50.754;11.508;2023-08-20T11:09:10;101286.50;;;27.39;100.00
21545;BME280;10933;50.754;11.508;2023-08-20T11:11:38;101296.88;;;27.73;100.00
21545;BME280;10933;50.754;11.508;2023-08-20T11:14:07;101303.91;;;28.05;100.00
21545;BME280;10933;50.754;11.508;2023-08-20T11:16:34;101309.47;;;28.40;100.00
21545;BME280;10933;50.754;11.508;2023-08-20T11:19:01;101296.06;;;28.25;100.00
21545;BME280;10933;50.754;11.508;2023-08-20T11:21:28;101304.25;;;27.95;100.00
21545;BME280;10933;50.754;11.508;2023-08-20T11:23:55;101307.16;;;28.59;100.00
21545;BME280;10933;50.754;11.508;2023-08-20T11:26:21;101309.47;;;29.13;100.00
21545;BME280;10933;50.754;11.508;2023-08-20T11:28:47;101312.03;;;29.56;100.00
21545;BME280;10933;50.754;11.508;2023-08-20T11:31:13;101299.81;;;30.53;100.00
21545;BME280;10933;50.754;11.508;2023-08-20T11:33:40;101245.72;;;29.67;100.00
21545;BME280;10933;50.754;11.508;2023-08-20T11:36:06;101180.31;;;29.81;100.00
21545;BME280;10933;50.754;11.508;2023-08-20T11:38:32;100819.53;;;30.34;100.00
21545;BME280;10933;50.754;11.508;2023-08-20T11:40:59;100504.00;;;30.11;100.00
21545;BME280;10933;50.754;11.508;2023-08-20T11:43:27;100453.63;;;28.85;100.00
21545;BME280;10933;50.754;11.508;2023-08-20T11:45:54;100482.19;;;29.10;100.00
21545;BME280;10933;50.754;11.508;2023-08-20T11:48:21;100463.94;;;30.31;100.00
21545;BME280;10933;50.754;11.508;2023-08-20T11:50:49;100312.50;;;31.85;100.00
21545;BME280;10933;50.754;11.508;2023-08-20T11:53:17;100106.31;;;30.02;100.00
21545;BME280;10933;50.754;11.508;2023-08-20T11:55:46;100142.72;;;28.72;100.00
21545;BME280;10933;50.754;11.508;2023-08-20T11:58:12;100161.72;;;28.27;100.00
21545;BME280;10933;50.754;11.508;2023-08-20T12:00:39;100212.91;;;28.01;100.00
21545;BME280;10933;50.754;11.508;2023-08-20T12:03:07;100232.31;;;28.57;100.00
21545;BME280;10933;50.754;11.508;2023-08-20T12:05:33;100179.69;;;29.08;100.00
21545;BME280;10933;50.754;11.508;2023-08-20T12:08:04;100120.63;;;30.43;100.00
21545;BME280;10933;50.754;11.508;2023-08-20T12:10:31;100126.22;;;30.46;100.00
21545;BME280;10933;50.754;11.508;2023-08-20T12:12:58;100164.69;;;29.99;100.00
21545;BME280;10933;50.754;11.508;2023-08-20T12:15:25;100192.41;;;29.95;100.00
21545;BME280;10933;50.754;11.508;2023-08-20T12:18:02;100198.31;;;30.71;100.00
21545;BME280;10933;50.754;11.508;2023-08-20T12:20:32;100209.25;;;30.02;100.00
21545;BME280;10933;50.754;11.508;2023-08-20T12:23:00;100216.19;;;29.73;100.00
21545;BME280;10933;50.754;11.508;2023-08-20T12:25:29;100205.06;;;29.73;100.00
21545;BME280;10933;50.754;11.508;2023-08-20T12:27:55;100215.84;;;29.94;100.00
21545;BME280;10933;50.754;11.508;2023-08-20T12:30:22;100190.97;;;31.31;100.00
21545;BME280;10933;50.754;11.508;2023-08-20T12:32:48;100172.50;;;31.23;100.00
21545;BME280;10933;50.754;11.508;2023-08-20T12:35:14;100164.66;;;31.29;100.00
21545;BME280;10933;50.754;11.508;2023-08-20T12:37:40;100160.91;;;31.74;100.00
21545;BME280;10933;50.754;11.508;2023-08-20T12:40:07;100110.97;;;31.66;100.00
21545;BME280;10933;50.754;11.508;2023-08-20T12:42:38;100072.56;;;31.52;100.00